createdAt,value
2018-01-27T00:02:18.660Z,40.07
2018-01-27T00:04:46.430Z,42.63
2018-01-27T00:07:13.886Z,40.77
2018-01-27T00:09:41.347Z,41.03
2018-01-27T00:12:09.121Z,41.90
2018-01-27T00:14:36.584Z,42.47
2018-01-27T00:17:04.040Z,44.03
2018-01-27T00:19:31.804Z,44.47
2018-01-27T00:21:59.261Z,40.97
2018-01-27T00:24:26.715Z,39.93
2018-01-27T00:26:54.497Z,41.37
2018-01-27T00:29:21.949Z,43.60
2018-01-27T00:31:49.400Z,39.43
2018-01-27T00:34:17.155Z,39.20
2018-01-27T00:36:44.601Z,41.67
2018-01-27T00:39:12.053Z,40.87
2018-01-27T00:41:39.880Z,40.87
2018-01-27T00:44:07.337Z,39.13
2018-01-27T00:46:34.801Z,39.30
2018-01-27T00:49:02.560Z,38.60
2018-01-27T00:51:30.714Z,38.90
2018-01-27T00:53:58.171Z,36.67
2018-01-27T00:56:25.848Z,39.67
2018-01-27T00:58:53.325Z,40.37
2018-01-27T01:01:20.780Z,38.80
2018-01-27T01:03:48.690Z,36.87
2018-01-27T01:06:16.150Z,38.57
2018-01-27T01:08:43.610Z,38.40
2018-01-27T01:11:13.377Z,39.23
2018-01-27T01:13:40.825Z,40.80
2018-01-27T01:16:08.274Z,38.60
2018-01-27T01:18:36.068Z,41.30
2018-01-27T01:21:03.524Z,40.27
2018-01-27T01:23:30.973Z,39.77
2018-01-27T01:25:58.762Z,43.43
2018-01-27T01:28:26.215Z,39.43
2018-01-27T01:30:53.976Z,42.83
2018-01-27T01:33:21.762Z,45.30
2018-01-27T01:35:49.213Z,39.77
2018-01-27T01:38:16.668Z,41.77
2018-01-27T01:40:44.431Z,45.67
2018-01-27T01:43:17.520Z,45.40
2018-01-27T01:45:44.976Z,43.30
2018-01-27T01:48:12.953Z,44.87
2018-01-27T01:50:40.410Z,45.10
2018-01-27T01:53:08.693Z,46.30
2018-01-27T01:55:36.559Z,46.53
2018-01-27T01:58:04.021Z,48.43
2018-01-27T02:00:31.468Z,46.33
2018-01-27T02:02:59.566Z,46.63
2018-01-27T02:05:27.027Z,49.27
2018-01-27T02:07:54.476Z,48.47
2018-01-27T02:10:22.255Z,48.53
2018-01-27T02:12:49.764Z,46.50
2018-01-27T02:15:17.209Z,48.43
2018-01-27T02:17:44.937Z,45.40
2018-01-27T02:20:12.402Z,49.77
2018-01-27T02:22:40.606Z,49.73
2018-01-27T02:25:08.240Z,48.80
2018-01-27T02:27:35.701Z,49.43
2018-01-27T02:30:03.166Z,46.37
2018-01-27T02:32:30.926Z,51.60
2018-01-27T02:34:58.387Z,48.63
2018-01-27T02:37:25.840Z,46.77
2018-01-27T02:39:53.927Z,45.63
2018-01-27T02:42:21.373Z,41.50
2018-01-27T02:44:48.824Z,45.60
2018-01-27T02:47:16.506Z,45.23
2018-01-27T02:49:43.957Z,42.67
2018-01-27T02:52:11.434Z,45.80
2018-01-27T02:54:40.163Z,43.30
2018-01-27T02:57:07.615Z,44.97
2018-01-27T02:59:35.086Z,44.20
2018-01-27T03:02:02.902Z,43.67
2018-01-27T03:04:30.357Z,42.37
2018-01-27T03:06:57.816Z,48.27
2018-01-27T03:09:25.897Z,43.03
2018-01-27T03:11:53.349Z,45.90
2018-01-27T03:14:20.804Z,43.97
2018-01-27T03:16:48.577Z,43.73
2018-01-27T03:19:16.029Z,46.70
2018-01-27T03:21:43.482Z,45.70
2018-01-27T03:24:11.581Z,43.00
2018-01-27T03:26:39.040Z,45.77
2018-01-27T03:29:06.505Z,44.40
2018-01-27T03:31:34.569Z,45.80
2018-01-27T03:34:02.046Z,45.37
2018-01-27T03:36:29.506Z,48.33
2018-01-27T03:38:57.256Z,48.10
2018-01-27T03:41:24.712Z,45.33
2018-01-27T03:43:52.157Z,46.80
2018-01-27T03:46:19.874Z,46.20
2018-01-27T03:48:47.324Z,45.60
2018-01-27T03:51:14.793Z,43.77
2018-01-27T03:53:42.904Z,48.20
2018-01-27T03:56:11.396Z,48.70
2018-01-27T03:58:38.869Z,44.50
2018-01-27T04:01:06.772Z,46.97
2018-01-27T04:03:34.234Z,46.50
2018-01-27T04:06:01.692Z,48.40
2018-01-27T04:08:29.532Z,46.63
2018-01-27T04:10:56.988Z,47.77
2018-01-27T04:20:07.824Z,48.70
2018-01-27T04:22:35.285Z,49.60
2018-01-27T04:25:02.748Z,52.60
2018-01-27T04:27:30.517Z,51.67
2018-01-27T04:29:57.993Z,52.17
2018-01-27T04:32:25.452Z,55.70
2018-01-27T04:34:53.509Z,54.80
2018-01-27T04:37:20.965Z,54.77
2018-01-27T04:39:48.428Z,57.70
2018-01-27T04:42:16.187Z,56.70
2018-01-27T04:44:43.656Z,54.60
2018-01-27T04:47:11.121Z,52.00
2018-01-27T04:49:39.196Z,52.63
2018-01-27T04:52:06.656Z,50.27
2018-01-27T04:54:34.113Z,50.90
2018-01-27T04:57:02.817Z,53.50
2018-01-27T04:59:30.265Z,51.20
2018-01-27T05:01:57.725Z,56.90
2018-01-27T05:04:25.476Z,55.73
2018-01-27T05:06:52.938Z,55.47
2018-01-27T05:09:20.404Z,54.80
2018-01-27T05:11:48.180Z,50.77
2018-01-27T05:14:15.640Z,52.77
2018-01-27T05:16:43.096Z,50.40
2018-01-27T05:19:10.856Z,50.10
2018-01-27T05:21:38.316Z,50.63
2018-01-27T05:24:05.768Z,52.80
2018-01-27T05:26:33.544Z,53.93
2018-01-27T05:29:01.001Z,52.73
2018-01-27T05:31:28.465Z,53.80
2018-01-27T05:33:56.233Z,51.70
2018-01-27T05:36:23.700Z,52.20
2018-01-27T05:38:51.153Z,53.40
2018-01-27T05:41:18.922Z,55.27
2018-01-27T05:43:46.385Z,55.00
2018-01-27T05:46:13.850Z,55.37
2018-01-27T05:48:41.912Z,57.20
2018-01-27T05:51:09.373Z,54.00
2018-01-27T05:53:36.831Z,55.60
2018-01-27T05:56:04.593Z,60.80
2018-01-27T05:58:32.440Z,55.07
2018-01-27T06:00:59.901Z,55.63
2018-01-27T06:03:27.901Z,51.60
2018-01-27T06:05:55.360Z,52.03
2018-01-27T06:08:22.821Z,53.83
2018-01-27T06:10:50.581Z,52.30
2018-01-27T06:13:18.040Z,51.67
2018-01-27T06:15:45.512Z,50.20
2018-01-27T06:18:13.272Z,51.40
2018-01-27T06:20:40.739Z,53.83
2018-01-27T06:23:08.200Z,53.77
2018-01-27T06:25:35.960Z,52.87
2018-01-27T06:28:03.418Z,43.67
2018-01-27T06:30:30.873Z,46.57
2018-01-27T06:32:58.672Z,48.27
2018-01-27T06:35:26.134Z,45.47
2018-01-27T06:37:53.593Z,48.50
2018-01-27T06:40:21.329Z,44.30
2018-01-27T06:42:48.777Z,40.93
2018-01-27T06:45:16.231Z,35.30
2018-01-27T06:47:44.014Z,37.60
2018-01-27T06:50:11.472Z,36.70
2018-01-27T06:52:38.928Z,38.10
2018-01-27T06:55:06.704Z,35.70
2018-01-27T06:57:34.157Z,35.60
2018-01-27T07:00:02.584Z,32.60
2018-01-27T07:02:30.312Z,28.67
2018-01-27T07:04:57.757Z,30.23
2018-01-27T07:07:25.207Z,30.13
2018-01-27T07:09:52.997Z,27.50
2018-01-27T07:12:20.450Z,28.77
2018-01-27T07:14:47.903Z,31.43
2018-01-27T07:17:15.689Z,32.03
2018-01-27T07:19:43.145Z,31.37
2018-01-27T07:22:10.605Z,29.20
2018-01-27T07:24:38.383Z,30.50
2018-01-27T07:27:05.885Z,27.93
2018-01-27T07:29:33.326Z,30.60
2018-01-27T07:32:01.382Z,30.70
2018-01-27T07:34:28.876Z,27.67
2018-01-27T07:36:56.338Z,24.77
2018-01-27T07:39:24.060Z,27.47
2018-01-27T07:41:51.522Z,28.10
2018-01-27T07:44:18.972Z,29.10
2018-01-27T07:46:46.732Z,27.73
2018-01-27T07:49:14.185Z,29.17
2018-01-27T07:51:41.923Z,27.20
2018-01-27T07:54:10.050Z,28.30
2018-01-27T07:56:37.509Z,27.73
2018-01-27T07:59:04.974Z,28.37
2018-01-27T08:01:33.677Z,30.63
2018-01-27T08:04:01.142Z,29.80
2018-01-27T08:06:28.595Z,27.80
2018-01-27T08:08:56.344Z,27.90
2018-01-27T08:11:23.798Z,28.20
2018-01-27T08:13:51.269Z,28.27
2018-01-27T08:16:19.021Z,26.90
2018-01-27T08:18:46.481Z,28.50
2018-01-27T08:21:13.933Z,29.20
2018-01-27T08:23:42.029Z,26.83
2018-01-27T08:26:09.500Z,28.10
2018-01-27T08:28:37.940Z,29.00
2018-01-27T08:31:05.882Z,30.90
2018-01-27T08:33:33.340Z,29.03
2018-01-27T08:36:00.801Z,29.67
2018-01-27T08:38:28.640Z,31.53
2018-01-27T08:40:56.098Z,30.40
2018-01-27T08:43:23.556Z,36.67
2018-01-27T08:45:51.342Z,36.30
2018-01-27T08:48:18.820Z,29.17
2018-01-27T08:50:46.299Z,29.63
2018-01-27T08:53:14.301Z,30.83
2018-01-27T08:55:41.756Z,32.60
2018-01-27T08:58:10.459Z,33.43
2018-01-27T09:00:37.921Z,32.40
2018-01-27T09:03:05.387Z,32.47
2018-01-27T09:05:33.147Z,31.77
2018-01-27T09:08:00.614Z,35.77
2018-01-27T09:10:28.072Z,32.67
2018-01-27T09:12:56.124Z,32.87
2018-01-27T09:15:23.585Z,35.80
2018-01-27T09:17:51.048Z,36.20
2018-01-27T09:20:18.832Z,36.20
2018-01-27T09:22:46.292Z,32.40
2018-01-27T09:25:13.752Z,31.50
2018-01-27T09:27:41.516Z,32.83
2018-01-27T09:30:08.976Z,30.63
2018-01-27T09:32:36.456Z,28.13
2018-01-27T09:35:04.194Z,28.83
2018-01-27T09:37:31.642Z,30.60
2018-01-27T09:39:59.097Z,28.03
2018-01-27T09:42:26.877Z,29.00
2018-01-27T09:44:54.322Z,31.50
2018-01-27T09:47:21.780Z,34.03
2018-01-27T09:49:49.886Z,29.27
2018-01-27T09:52:17.347Z,30.43
2018-01-27T09:54:44.802Z,31.43
2018-01-27T09:57:12.525Z,30.27
2018-01-27T09:59:40.465Z,31.97
2018-01-27T10:02:07.916Z,29.43
2018-01-27T10:04:35.875Z,30.17
2018-01-27T10:07:03.332Z,31.10
2018-01-27T10:09:30.820Z,31.90
2018-01-27T10:11:58.556Z,27.80
2018-01-27T10:14:26.023Z,27.97
2018-01-27T10:16:53.485Z,32.10
2018-01-27T10:19:21.243Z,29.67
2018-01-27T10:21:48.756Z,31.03
2018-01-27T10:24:16.180Z,31.27
2018-01-27T10:26:43.928Z,28.57
2018-01-27T10:29:11.390Z,27.67
2018-01-27T10:31:38.834Z,30.10
2018-01-27T10:34:06.620Z,29.47
2018-01-27T10:36:34.079Z,29.10
2018-01-27T10:39:01.533Z,28.33
2018-01-27T10:41:29.296Z,30.20
2018-01-27T10:43:56.753Z,28.27
2018-01-27T10:46:24.228Z,30.40
2018-01-27T10:48:51.981Z,30.00
2018-01-27T10:51:19.429Z,30.10
2018-01-27T10:53:46.884Z,30.40
2018-01-27T10:56:14.633Z,28.07
2018-01-27T10:58:42.087Z,29.47
2018-01-27T11:01:11.825Z,29.03
2018-01-27T11:03:39.513Z,26.60
2018-01-27T11:06:06.972Z,27.60
2018-01-27T11:08:34.420Z,27.77
2018-01-27T11:11:02.066Z,24.93
2018-01-27T11:13:29.508Z,27.30
2018-01-27T11:15:56.969Z,29.53
2018-01-27T11:18:24.888Z,29.33
2018-01-27T11:20:52.339Z,28.60
2018-01-27T11:23:19.793Z,25.97
2018-01-27T11:25:47.533Z,27.87
2018-01-27T11:28:14.993Z,28.53
2018-01-27T11:30:42.442Z,28.03
2018-01-27T11:33:10.249Z,26.90
2018-01-27T11:35:37.693Z,28.20
2018-01-27T11:38:05.136Z,27.77
2018-01-27T11:40:32.949Z,28.10
2018-01-27T11:43:00.419Z,28.87
2018-01-27T11:45:27.871Z,27.80
2018-01-27T11:47:55.624Z,25.63
2018-01-27T11:50:23.073Z,26.33
2018-01-27T11:52:50.534Z,29.97
2018-01-27T11:55:18.309Z,28.53
2018-01-27T11:57:45.760Z,29.07
2018-01-27T12:00:13.220Z,30.20
2018-01-27T12:02:41.942Z,27.70
2018-01-27T12:05:09.396Z,29.50
2018-01-27T12:07:36.853Z,28.57
2018-01-27T12:10:04.701Z,32.03
2018-01-27T12:12:32.144Z,29.20
2018-01-27T12:14:59.601Z,29.90
2018-01-27T12:17:27.269Z,29.30
2018-01-27T12:19:54.711Z,29.00
2018-01-27T12:22:22.161Z,31.93
2018-01-27T12:24:49.997Z,33.77
2018-01-27T12:27:17.444Z,29.83
2018-01-27T12:29:44.892Z,30.03
2018-01-27T12:32:12.670Z,32.97
2018-01-27T12:34:40.112Z,29.67
2018-01-27T12:37:07.558Z,31.63
2018-01-27T12:39:35.362Z,32.30
2018-01-27T12:42:02.810Z,33.27
2018-01-27T12:44:30.252Z,32.23
2018-01-27T12:46:58.048Z,31.00
2018-01-27T12:49:25.499Z,30.27
2018-01-27T12:51:52.941Z,32.20
2018-01-27T12:54:20.637Z,33.27
2018-01-27T12:56:48.084Z,31.50
2018-01-27T12:59:15.533Z,30.77
2018-01-27T13:01:43.417Z,29.43
2018-01-27T13:04:11.881Z,31.67
2018-01-27T13:06:39.344Z,29.40
2018-01-27T13:09:07.355Z,35.43
2018-01-27T13:11:34.800Z,33.47
2018-01-27T13:14:02.277Z,32.00
2018-01-27T13:16:30.023Z,35.47
2018-01-27T13:18:57.474Z,33.50
2018-01-27T13:21:24.933Z,32.00
2018-01-27T13:23:52.709Z,32.67
2018-01-27T13:26:20.158Z,30.53
2018-01-27T13:28:47.604Z,33.03
2018-01-27T13:31:15.406Z,31.87
2018-01-27T13:33:42.861Z,30.07
2018-01-27T13:36:10.327Z,34.07
2018-01-27T13:38:38.073Z,33.37
2018-01-27T13:41:05.525Z,33.30
2018-01-27T13:43:32.982Z,34.80
2018-01-27T13:46:00.773Z,31.90
2018-01-27T13:48:28.281Z,33.17
2018-01-27T13:50:55.729Z,33.93
2018-01-27T13:53:23.468Z,34.90
2018-01-27T13:55:50.932Z,28.60
2018-01-27T13:58:18.385Z,25.60
2018-01-27T14:00:46.449Z,28.07
2018-01-27T14:03:13.910Z,29.80
2018-01-27T14:05:41.453Z,30.07
2018-01-27T14:08:09.174Z,28.37
2018-01-27T14:10:36.629Z,28.40
2018-01-27T14:13:04.080Z,29.43
2018-01-27T14:15:31.835Z,28.00
2018-01-27T14:17:59.288Z,28.37
2018-01-27T14:20:26.746Z,27.57
2018-01-27T14:22:54.561Z,28.97
2018-01-27T14:25:22.018Z,27.40
2018-01-27T14:27:49.481Z,27.50
2018-01-27T14:30:17.210Z,29.80
2018-01-27T14:32:44.660Z,28.47
2018-01-27T14:35:12.106Z,27.20
2018-01-27T14:37:39.899Z,30.03
2018-01-27T14:40:07.358Z,31.03
2018-01-27T14:42:34.817Z,30.40
2018-01-27T14:45:02.584Z,30.00
2018-01-27T14:47:30.707Z,34.03
2018-01-27T14:49:58.163Z,35.20
2018-01-27T14:52:25.873Z,34.90
2018-01-27T14:54:53.327Z,36.57
2018-01-27T14:57:20.780Z,36.97
2018-01-27T14:59:48.573Z,35.80
2018-01-27T15:02:16.033Z,36.27
2018-01-27T15:04:43.489Z,36.27
2018-01-27T15:07:11.873Z,38.50
2018-01-27T15:09:39.320Z,36.37
2018-01-27T15:12:06.774Z,39.43
2018-01-27T15:14:34.557Z,38.70
2018-01-27T15:17:02.010Z,37.87
2018-01-27T15:19:29.462Z,34.80
2018-01-27T15:21:57.232Z,37.50
2018-01-27T15:24:24.691Z,38.77
2018-01-27T15:26:52.145Z,38.07
2018-01-27T15:29:19.921Z,35.17
2018-01-27T15:31:47.373Z,34.50
2018-01-27T15:34:14.829Z,37.47
2018-01-27T15:36:42.613Z,36.47
2018-01-27T15:39:10.073Z,35.80
2018-01-27T15:41:37.556Z,34.73
2018-01-27T15:44:05.310Z,39.40
2018-01-27T15:46:32.769Z,35.43
2018-01-27T15:49:01.160Z,34.93
2018-01-27T15:51:28.905Z,38.20
2018-01-27T15:53:56.363Z,37.90
2018-01-27T15:56:23.821Z,37.03
2018-01-27T15:58:51.593Z,38.30
2018-01-27T16:01:19.048Z,40.47
2018-01-27T16:03:46.562Z,37.70
2018-01-27T16:06:14.592Z,39.10
2018-01-27T16:08:42.428Z,34.23
2018-01-27T16:11:09.893Z,39.30
2018-01-27T16:13:37.652Z,38.30
2018-01-27T16:16:05.131Z,36.23
2018-01-27T16:18:32.593Z,38.97
2018-01-27T16:21:00.405Z,37.67
2018-01-27T16:23:27.923Z,35.93
2018-01-27T16:25:55.373Z,31.27
2018-01-27T16:28:23.250Z,35.83
2018-01-27T16:30:50.700Z,36.83
2018-01-27T16:33:18.152Z,35.13
2018-01-27T16:35:45.957Z,37.93
2018-01-27T16:38:13.409Z,37.20
2018-01-27T16:40:40.864Z,34.90
2018-01-27T16:43:08.963Z,33.60
2018-01-27T16:45:36.425Z,46.33
2018-01-27T16:48:03.876Z,37.90
2018-01-27T16:50:31.625Z,34.90
2018-01-27T16:52:59.077Z,35.77
2018-01-27T16:55:26.528Z,35.30
2018-01-27T16:57:54.289Z,32.97
2018-01-27T17:00:21.752Z,34.67
2018-01-27T17:02:49.200Z,33.97
2018-01-27T17:05:17.025Z,31.17
2018-01-27T17:07:44.493Z,32.67
2018-01-27T17:10:12.321Z,39.63
2018-01-27T17:12:40.356Z,30.97
2018-01-27T17:15:07.804Z,35.47
2018-01-27T17:17:35.281Z,36.93
2018-01-27T17:20:03.015Z,33.13
2018-01-27T17:22:30.465Z,37.43
2018-01-27T17:24:57.929Z,33.20
2018-01-27T17:27:25.699Z,34.20
2018-01-27T17:29:53.150Z,34.93
2018-01-27T17:32:20.611Z,34.20
2018-01-27T17:34:48.372Z,36.00
2018-01-27T17:37:15.834Z,34.40
2018-01-27T17:39:43.287Z,39.77
2018-01-27T17:42:11.064Z,37.20
2018-01-27T17:44:38.526Z,37.60
2018-01-27T17:47:05.986Z,37.80
2018-01-27T17:49:33.760Z,38.30
2018-01-27T17:52:01.218Z,39.93
2018-01-27T17:54:28.667Z,36.40
2018-01-27T17:56:56.522Z,37.57
2018-01-27T17:59:23.998Z,36.80
2018-01-27T18:01:51.461Z,37.37
2018-01-27T18:04:19.128Z,38.73
2018-01-27T18:06:46.621Z,39.50
2018-01-27T18:09:14.102Z,42.77
2018-01-27T18:11:42.776Z,39.43
2018-01-27T18:14:10.232Z,37.67
2018-01-27T18:16:37.710Z,36.83
2018-01-27T18:19:05.662Z,39.00
2018-01-27T18:21:33.110Z,38.70
2018-01-27T18:24:00.569Z,37.23
2018-01-27T18:26:28.309Z,38.90
2018-01-27T18:28:55.789Z,35.73
2018-01-27T18:31:23.252Z,38.40
2018-01-27T18:33:51.135Z,40.47
2018-01-27T18:36:18.569Z,37.47
2018-01-27T18:38:46.027Z,37.03
2018-01-27T18:41:13.929Z,35.73
2018-01-27T18:43:41.395Z,38.17
2018-01-27T18:46:08.851Z,46.23
2018-01-27T18:48:36.710Z,39.30
2018-01-27T18:51:04.181Z,40.73
2018-01-27T18:53:31.643Z,39.17
2018-01-27T18:55:59.457Z,38.40
2018-01-27T18:58:26.910Z,41.30
2018-01-27T19:00:54.404Z,41.93
2018-01-27T19:03:22.453Z,40.30
2018-01-27T19:05:49.914Z,42.83
2018-01-27T19:08:17.377Z,43.57
2018-01-27T19:10:45.145Z,40.37
2018-01-27T19:13:12.980Z,43.63
2018-01-27T19:15:40.432Z,42.70
2018-01-27T19:18:08.128Z,42.20
2018-01-27T19:20:35.580Z,40.23
2018-01-27T19:23:03.029Z,45.17
2018-01-27T19:25:30.837Z,41.40
2018-01-27T19:27:58.301Z,38.90
2018-01-27T19:30:25.759Z,35.77
2018-01-27T19:32:53.504Z,40.87
2018-01-27T19:35:20.966Z,40.60
2018-01-27T19:37:48.417Z,39.87
2018-01-27T19:40:16.815Z,42.20
2018-01-27T19:42:44.276Z,40.23
2018-01-27T19:45:11.753Z,42.47
2018-01-27T19:47:39.496Z,43.07
2018-01-27T19:50:06.963Z,40.53
2018-01-27T19:52:35.308Z,42.43
2018-01-27T19:55:03.158Z,39.10
2018-01-27T19:57:30.624Z,40.70
2018-01-27T19:59:58.085Z,42.80
2018-01-27T20:02:26.101Z,59.73
2018-01-27T20:04:53.609Z,45.10
2018-01-27T20:07:21.069Z,40.57
2018-01-27T20:09:48.807Z,38.60
2018-01-27T20:12:16.261Z,41.47
2018-01-27T20:14:44.401Z,47.30
2018-01-27T20:17:12.114Z,38.03
2018-01-27T20:19:39.572Z,35.87
2018-01-27T20:22:07.027Z,35.17
2018-01-27T20:24:34.780Z,36.93
2018-01-27T20:27:02.261Z,38.63
2018-01-27T20:29:29.720Z,39.90
2018-01-27T20:31:57.469Z,41.27
2018-01-27T20:34:24.922Z,37.10
2018-01-27T20:36:52.381Z,42.10
2018-01-27T20:39:20.180Z,37.47
2018-01-27T20:41:47.637Z,39.00
2018-01-27T20:44:15.096Z,37.50
2018-01-27T20:46:43.147Z,34.80
2018-01-27T20:49:10.608Z,33.23
2018-01-27T20:51:38.117Z,36.07
2018-01-27T20:54:05.880Z,37.27
2018-01-27T20:56:33.346Z,39.00
2018-01-27T20:59:00.804Z,38.37
2018-01-27T21:01:28.529Z,40.43
2018-01-27T21:03:56.010Z,38.53
2018-01-27T21:06:23.472Z,38.33
2018-01-27T21:08:51.196Z,40.30
2018-01-27T21:11:18.674Z,40.40
2018-01-27T21:13:46.157Z,41.37
2018-01-27T21:16:15.488Z,37.80
2018-01-27T21:18:42.933Z,42.50
2018-01-27T21:21:10.385Z,44.00
2018-01-27T21:23:38.114Z,46.80
2018-01-27T21:26:05.575Z,45.63
2018-01-27T21:28:33.032Z,45.27
2018-01-27T21:31:00.797Z,45.70
2018-01-27T21:33:28.249Z,46.47
2018-01-27T21:35:55.709Z,46.87
2018-01-27T21:38:23.496Z,44.30
2018-01-27T21:40:50.951Z,46.17
2018-01-27T21:43:18.412Z,44.23
2018-01-27T21:45:46.128Z,46.40
2018-01-27T21:48:13.585Z,46.53
2018-01-27T21:50:41.700Z,46.17
2018-01-27T21:53:09.480Z,46.87
2018-01-27T21:55:37.259Z,46.27
2018-01-27T21:58:04.712Z,43.43
2018-01-27T22:00:32.722Z,45.13
2018-01-27T22:03:00.188Z,45.13
2018-01-27T22:05:27.654Z,42.73
2018-01-27T22:07:55.776Z,45.80
2018-01-27T22:10:23.238Z,44.87
2018-01-27T22:12:50.716Z,43.47
2018-01-27T22:15:18.433Z,43.20
2018-01-27T22:17:46.337Z,45.87
2018-01-27T22:20:13.802Z,44.23
2018-01-27T22:22:42.685Z,42.60
2018-01-27T22:25:10.148Z,43.43
2018-01-27T22:27:37.601Z,44.67
2018-01-27T22:30:05.324Z,46.93
2018-01-27T22:32:32.780Z,44.40
2018-01-27T22:35:00.245Z,41.60
2018-01-27T22:37:28.062Z,43.17
2018-01-27T22:39:55.521Z,41.80
2018-01-27T22:42:22.985Z,42.63
2018-01-27T22:44:50.749Z,43.63
2018-01-27T22:47:18.208Z,39.50
2018-01-27T22:49:45.679Z,40.33
2018-01-27T22:52:13.425Z,45.30
2018-01-27T22:54:41.902Z,44.80
2018-01-27T22:57:09.356Z,41.07
2018-01-27T22:59:37.344Z,42.73
2018-01-27T23:02:04.808Z,42.37
2018-01-27T23:04:32.268Z,46.17
2018-01-27T23:07:00.049Z,44.93
2018-01-27T23:09:27.508Z,44.27
2018-01-27T23:11:54.972Z,46.37
2018-01-27T23:14:22.718Z,43.43
2018-01-27T23:16:50.181Z,45.67
2018-01-27T23:19:17.915Z,44.97
2018-01-27T23:21:45.714Z,46.53
2018-01-27T23:24:13.180Z,44.50
2018-01-27T23:26:40.688Z,44.07
2018-01-27T23:29:08.712Z,46.80
2018-01-27T23:31:36.168Z,45.40
2018-01-27T23:34:03.625Z,46.13
2018-01-27T23:36:31.396Z,45.03
2018-01-27T23:38:58.857Z,44.57
2018-01-27T23:41:26.319Z,48.30
2018-01-27T23:43:54.085Z,46.00
2018-01-27T23:46:21.552Z,44.87
2018-01-27T23:48:49.008Z,46.87
2018-01-27T23:51:16.935Z,50.00
2018-01-27T23:53:44.394Z,47.07
2018-01-27T23:56:11.856Z,47.20
2018-01-27T23:58:39.776Z,45.20
